Time;durP1;ratioP1;P1;durP2;ratioP2;P2;SDS_P1;SDS_P2;PMS_P1;PMS_P2;Temp;Humidity;BMP_temperature;BMP_pressure;BME280_temperature;BME280_humidity;BME280_pressure;Samples;Min_cycle;Max_cycle;Signal;HPM_P1;HPM_P2
2023/10/14 00:05:24;;;;;;;11.30;5.10;;;19.70;99.90;;;;;;5851218;23;45693;-58
2023/10/14 00:10:43;;;;;;;24.30;6.18;;;19.70;99.90;;;;;;5844630;23;45162;-58
2023/10/14 00:13:30;;;;;;;21.50;6.05;;;19.50;99.90;;;;;;5882547;23;45499;-58
2023/10/14 00:48:03;;;;;;;15.68;6.00;;;18.90;99.90;;;;;;6063094;22;44979;-59
2023/10/14 00:54:01;;;;;;;18.52;7.15;;;19.00;99.90;;;;;;6024173;22;45096;-59
2023/10/14 00:56:47;;;;;;;16.77;5.72;;;19.00;99.90;;;;;;6034703;22;45259;-59
2023/10/14 00:59:18;;;;;;;12.02;6.07;;;19.00;99.90;;;;;;6011169;22;45403;-59
2023/10/14 01:02:05;;;;;;;13.82;6.07;;;19.10;99.90;;;;;;6038158;22;45305;-59
2023/10/14 01:04:40;;;;;;;15.50;5.85;;;19.00;99.90;;;;;;6033257;22;45341;-59
2023/10/14 01:07:12;;;;;;;12.35;5.57;;;18.90;99.90;;;;;;6048334;22;45331;-59
2023/10/14 01:09:52;;;;;;;11.15;4.75;;;18.90;99.90;;;;;;6029922;22;45093;-59
2023/10/14 01:12:39;;;;;;;14.82;5.57;;;18.90;99.90;;;;;;6040380;22;45257;-59
2023/10/14 01:15:41;;;;;;;12.98;4.85;;;18.80;99.90;;;;;;6035842;22;45348;-59
2023/10/14 01:18:34;;;;;;;12.07;4.93;;;18.70;99.90;;;;;;6036113;22;45819;-59
2023/10/14 01:21:03;;;;;;;10.05;4.43;;;18.70;99.90;;;;;;6035057;22;45320;-59
2023/10/14 01:23:59;;;;;;;11.55;4.78;;;18.70;99.90;;;;;;6053898;22;45414;-59
2023/10/14 01:32:37;;;;;;;10.40;4.65;;;18.10;99.90;;;;;;6038444;22;45160;-57
2023/10/14 01:35:31;;;;;;;16.90;4.78;;;17.70;99.90;;;;;;6023053;22;45264;-57
2023/10/14 01:38:23;;;;;;;15.98;5.22;;;17.60;99.90;;;;;;6052001;22;45521;-57
2023/10/14 01:41:04;;;;;;;30.25;5.57;;;17.50;99.90;;;;;;6019846;22;46911;-57
2023/10/14 01:44:15;;;;;;;70.55;6.65;;;17.40;99.90;;;;;;6009808;22;45019;-56
2023/10/14 01:47:12;;;;;;;20.15;4.18;;;17.30;99.90;;;;;;6018150;22;45392;-56
2023/10/14 01:50:00;;;;;;;14.73;3.22;;;17.20;99.90;;;;;;6012720;22;45289;-56
2023/10/14 01:52:31;;;;;;;11.77;2.80;;;17.10;99.90;;;;;;6027827;22;45788;-56
2023/10/14 01:55:00;;;;;;;8.55;2.78;;;17.10;99.90;;;;;;6038221;22;45832;-56
2023/10/14 01:57:29;;;;;;;7.32;2.28;;;17.30;99.90;;;;;;6057703;22;45164;-56
2023/10/14 01:59:55;;;;;;;5.28;1.83;;;17.20;99.90;;;;;;6037549;22;45079;-57
2023/10/14 02:03:00;;;;;;;4.25;1.95;;;17.20;99.90;;;;;;6045235;22;45978;-57
2023/10/14 02:05:52;;;;;;;5.30;1.42;;;17.10;99.90;;;;;;6012759;22;45311;-56
2023/10/14 02:08:40;;;;;;;4.65;1.67;;;17.20;99.90;;;;;;6051798;22;45096;-56
2023/10/14 02:11:09;;;;;;;3.92;0.60;;;17.40;99.90;;;;;;6033226;22;45225;-56
2023/10/14 02:14:24;;;;;;;5.97;1.42;;;17.30;99.90;;;;;;6032023;22;46593;-56
2023/10/14 02:17:23;;;;;;;3.40;1.13;;;17.20;99.90;;;;;;6032474;22;45142;-56
2023/10/14 02:22:31;;;;;;;2.63;1.30;;;17.30;99.90;;;;;;6028021;22;45405;-56
2023/10/14 02:25:33;;;;;;;3.72;0.70;;;17.10;99.90;;;;;;6043802;22;46298;-56
2023/10/14 02:28:23;;;;;;;11.50;0.65;;;16.90;99.90;;;;;;6023001;22;45080;-56
2023/10/14 02:31:35;;;;;;;3.03;0.63;;;16.70;99.90;;;;;;6064421;22;45127;-56
2023/10/14 02:38:11;;;;;;;1.40;0.60;;;16.60;99.90;;;;;;5952431;22;45363;-56
2023/10/14 02:40:38;;;;;;;3.85;1.20;;;16.80;99.90;;;;;;6036681;22;45072;-57
2023/10/14 02:43:39;;;;;;;2.33;1.10;;;16.90;99.90;;;;;;6068537;22;45208;-56
2023/10/14 02:47:04;;;;;;;1.38;0.73;;;17.20;99.90;;;;;;6051204;22;45200;-56
2023/10/14 02:53:28;;;;;;;0.95;0.50;;;17.00;99.90;;;;;;6034536;22;45583;-57
2023/10/14 02:56:21;;;;;;;1.48;0.70;;;16.90;99.90;;;;;;6037378;22;45222;-57
2023/10/14 02:59:16;;;;;;;1.60;0.70;;;17.10;99.90;;;;;;6057032;22;45440;-56
2023/10/14 03:05:20;;;;;;;7.32;1.00;;;17.10;99.90;;;;;;6016546;22;45158;-57
2023/10/14 03:08:34;;;;;;;4.38;0.80;;;17.30;99.90;;;;;;6036265;22;45325;-56
2023/10/14 03:11:21;;;;;;;3.25;0.57;;;16.90;99.90;;;;;;6050557;22;45462;-56
2023/10/14 03:13:49;;;;;;;8.73;0.98;;;16.30;99.90;;;;;;6033353;22;47579;-56
2023/10/14 03:16:18;;;;;;;5.72;0.70;;;16.30;99.90;;;;;;6051815;22;45368;-57
2023/10/14 03:18:44;;;;;;;2.20;0.73;;;16.40;99.90;;;;;;6026713;22;44890;-56
2023/10/14 03:23:56;;;;;;;4.30;0.68;;;16.60;99.90;;;;;;6024069;22;46003;-56
2023/10/14 03:26:47;;;;;;;5.75;0.90;;;16.60;99.90;;;;;;6038555;22;45199;-57
2023/10/14 03:29:45;;;;;;;3.95;1.00;;;16.70;99.90;;;;;;6019565;22;45270;-57
2023/10/14 03:32:32;;;;;;;8.52;0.80;;;16.60;99.90;;;;;;6011062;22;45271;-57
2023/10/14 03:35:28;;;;;;;2.28;0.63;;;16.70;99.90;;;;;;6001511;22;45482;-57
2023/10/14 03:41:37;;;;;;;9.95;1.40;;;16.40;99.90;;;;;;6022735;22;45444;-57
2023/10/14 03:44:15;;;;;;;7.70;1.00;;;16.10;99.90;;;;;;6010488;22;45193;-57
2023/10/14 03:47:16;;;;;;;12.48;1.45;;;16.20;99.90;;;;;;6017322;22;47665;-57
2023/10/14 03:49:59;;;;;;;10.38;1.63;;;16.30;99.90;;;;;;6056867;22;44817;-57
2023/10/14 03:52:51;;;;;;;5.60;1.10;;;16.40;99.90;;;;;;6046258;22;45068;-57
2023/10/14 03:55:38;;;;;;;6.20;1.17;;;16.70;99.90;;;;;;6021852;22;45328;-57
2023/10/14 03:58:41;;;;;;;6.88;1.60;;;16.70;99.90;;;;;;6059926;22;46448;-57
2023/10/14 04:01:08;;;;;;;6.40;1.20;;;16.70;99.90;;;;;;6061516;22;45006;-57
2023/10/14 04:03:41;;;;;;;12.15;1.73;;;16.70;99.90;;;;;;6046501;22;45327;-57
2023/10/14 04:06:09;;;;;;;5.13;1.40;;;16.80;99.90;;;;;;6034928;22;45631;-57
2023/10/14 04:08:50;;;;;;;7.82;1.50;;;16.70;99.90;;;;;;6030881;22;47605;-57
2023/10/14 04:11:38;;;;;;;14.25;2.08;;;16.50;99.90;;;;;;6040536;22;45570;-57
2023/10/14 04:14:27;;;;;;;5.75;1.33;;;16.50;99.90;;;;;;6038759;22;45317;-56
2023/10/14 04:17:21;;;;;;;6.70;1.23;;;16.60;99.90;;;;;;6070568;22;45088;-57
2023/10/14 04:19:53;;;;;;;6.60;1.23;;;16.60;99.90;;;;;;6011528;22;46354;-57
2023/10/14 04:22:38;;;;;;;12.30;2.03;;;16.50;99.90;;;;;;6043976;22;45263;-57
2023/10/14 04:28:33;;;;;;;13.00;2.03;;;15.80;99.90;;;;;;6031094;22;45805;-57
2023/10/14 04:31:16;;;;;;;12.77;1.60;;;16.10;99.90;;;;;;6030054;22;45748;-57
2023/10/14 04:34:17;;;;;;;7.47;1.30;;;15.80;99.90;;;;;;6068854;22;45166;-57
2023/10/14 04:37:50;;;;;;;10.65;1.65;;;15.50;99.90;;;;;;6030745;22;44983;-56
2023/10/14 04:43:19;;;;;;;16.40;1.92;;;15.30;99.90;;;;;;6063075;22;45620;-57
2023/10/14 04:46:16;;;;;;;10.23;1.70;;;14.90;99.90;;;;;;6029579;22;45049;-57
2023/10/14 04:54:52;;;;;;;17.75;1.95;;;14.90;99.90;;;;;;6005616;22;45306;-57
2023/10/14 04:57:40;;;;;;;9.40;1.95;;;14.80;99.90;;;;;;6029748;22;45357;-57
2023/10/14 05:00:38;;;;;;;13.90;2.25;;;14.70;99.90;;;;;;6008958;22;45188;-57
2023/10/14 05:03:42;;;;;;;10.07;1.50;;;15.00;99.90;;;;;;6051460;22;45077;-56
2023/10/14 05:06:21;;;;;;;10.18;1.60;;;15.00;99.90;;;;;;6034180;22;46179;-57
2023/10/14 05:08:51;;;;;;;12.20;1.52;;;15.10;99.90;;;;;;6026227;22;45321;-57
2023/10/14 05:11:37;;;;;;;16.83;1.70;;;15.30;99.90;;;;;;6046727;22;45120;-56
2023/10/14 05:14:18;;;;;;;8.18;1.42;;;14.70;99.90;;;;;;6062968;22;45221;-57
2023/10/14 05:17:32;;;;;;;13.05;1.80;;;14.20;99.90;;;;;;6046347;22;45132;-57
2023/10/14 05:20:15;;;;;;;10.63;1.67;;;14.10;99.90;;;;;;6049549;22;44808;-57
2023/10/14 05:26:14;;;;;;;14.85;1.88;;;14.10;99.90;;;;;;5990283;22;45085;-57
2023/10/14 05:29:17;;;;;;;16.40;1.85;;;14.20;99.90;;;;;;6032616;22;46140;-56
2023/10/14 05:31:52;;;;;;;14.88;2.05;;;13.70;99.90;;;;;;6039183;22;45255;-55
2023/10/14 05:34:24;;;;;;;15.48;1.60;;;13.50;99.90;;;;;;6038695;22;45146;-54
2023/10/14 05:37:07;;;;;;;11.85;1.40;;;14.10;99.90;;;;;;6019431;22;45281;-55
2023/10/14 05:45:34;;;;;;;16.35;2.08;;;14.00;99.90;;;;;;6021165;22;45272;-57
2023/10/14 05:48:26;;;;;;;12.25;2.13;;;13.70;99.90;;;;;;6013512;22;45039;-56
2023/10/14 05:51:02;;;;;;;11.80;1.60;;;13.90;99.90;;;;;;6030288;22;45479;-56
2023/10/14 05:53:31;;;;;;;20.92;1.95;;;13.80;99.90;;;;;;6041351;22;45101;-57
2023/10/14 05:56:09;;;;;;;14.50;2.35;;;13.80;99.90;;;;;;6019389;22;45153;-57
2023/10/14 05:58:52;;;;;;;14.10;1.90;;;13.70;99.90;;;;;;6022106;22;45847;-57
2023/10/14 06:01:31;;;;;;;7.05;1.48;;;13.60;99.90;;;;;;6042926;22;45896;-57
2023/10/14 06:04:19;;;;;;;11.13;2.08;;;13.40;99.90;;;;;;6034371;22;44877;-57
2023/10/14 06:07:20;;;;;;;14.90;2.08;;;13.60;99.90;;;;;;6057481;22;45213;-57
2023/10/14 06:10:10;;;;;;;13.50;2.03;;;13.50;99.90;;;;;;6091059;22;45244;-57
2023/10/14 06:13:00;;;;;;;14.65;1.63;;;13.60;99.90;;;;;;6043253;22;46263;-57
2023/10/14 06:16:17;;;;;;;12.55;1.67;;;13.60;99.90;;;;;;6034855;22;45453;-55
2023/10/14 06:19:04;;;;;;;12.23;1.77;;;13.80;99.90;;;;;;6055020;22;45282;-56
2023/10/14 06:22:16;;;;;;;15.65;2.08;;;13.70;99.90;;;;;;6046982;22;45032;-56
2023/10/14 06:24:53;;;;;;;16.33;2.10;;;13.80;99.90;;;;;;6038725;22;47284;-55
2023/10/14 06:27:46;;;;;;;12.80;2.10;;;13.70;99.90;;;;;;6043252;22;45605;-54
2023/10/14 06:30:45;;;;;;;16.38;2.47;;;13.70;99.90;;;;;;6030056;22;45400;-54
2023/10/14 06:33:14;;;;;;;12.02;1.88;;;13.70;99.90;;;;;;6039511;22;45575;-55
2023/10/14 06:35:53;;;;;;;13.05;2.30;;;13.80;99.90;;;;;;6044379;22;45498;-56
2023/10/14 06:39:13;;;;;;;11.82;1.90;;;13.90;99.90;;;;;;6035933;22;45180;-54
2023/10/14 06:41:43;;;;;;;15.27;2.30;;;13.50;99.90;;;;;;6019075;22;45231;-54
2023/10/14 06:44:51;;;;;;;15.52;1.90;;;13.60;99.90;;;;;;6030473;22;45390;-55
2023/10/14 06:47:21;;;;;;;6.82;1.52;;;13.60;99.90;;;;;;6040763;22;46601;-55
2023/10/14 06:49:54;;;;;;;10.65;1.45;;;13.40;99.90;;;;;;6060428;22;45010;-59
2023/10/14 06:52:22;;;;;;;16.20;2.10;;;13.40;99.90;;;;;;6035554;22;45297;-56
2023/10/14 06:54:51;;;;;;;9.18;1.83;;;13.30;99.90;;;;;;6024285;22;45199;-58
2023/10/14 06:57:55;;;;;;;21.10;1.75;;;13.60;99.90;;;;;;6022214;22;45585;-56
2023/10/14 07:00:37;;;;;;;11.88;1.73;;;13.90;99.90;;;;;;6037249;22;45259;-56
2023/10/14 07:03:51;;;;;;;16.02;1.70;;;13.90;99.90;;;;;;6068737;22;45416;-57
2023/10/14 07:06:42;;;;;;;15.23;1.65;;;13.90;99.90;;;;;;6010886;22;45232;-56
2023/10/14 07:12:13;;;;;;;11.18;1.80;;;13.40;99.90;;;;;;6014315;22;45345;-59
2023/10/14 07:14:46;;;;;;;14.48;2.03;;;13.50;99.90;;;;;;6026259;22;45366;-57
2023/10/14 07:17:27;;;;;;;11.10;1.63;;;13.10;99.90;;;;;;6019101;22;45261;-57
2023/10/14 07:20:14;;;;;;;8.77;1.52;;;13.10;99.90;;;;;;6061304;22;46124;-59
2023/10/14 07:22:54;;;;;;;12.55;1.90;;;13.50;99.90;;;;;;6022897;22;45137;-60
2023/10/14 07:25:29;;;;;;;14.38;2.40;;;13.50;99.90;;;;;;6019078;22;44991;-57
2023/10/14 07:28:20;;;;;;;11.25;1.52;;;13.80;99.90;;;;;;6053993;22;45338;-57
2023/10/14 07:34:47;;;;;;;8.60;1.85;;;13.80;99.90;;;;;;6011632;22;45022;-57
2023/10/14 07:37:24;;;;;;;6.22;1.50;;;13.50;99.90;;;;;;6020936;22;45113;-58
2023/10/14 07:39:53;;;;;;;10.00;1.95;;;14.00;99.90;;;;;;6049470;22;45380;-57
2023/10/14 07:42:40;;;;;;;16.85;2.40;;;14.10;99.90;;;;;;6042773;22;45402;-57
2023/10/14 07:45:22;;;;;;;18.17;2.30;;;13.90;99.90;;;;;;6037875;22;45137;-58
2023/10/14 07:47:50;;;;;;;17.33;2.03;;;13.50;99.90;;;;;;6038275;22;45026;-57
2023/10/14 07:50:37;;;;;;;11.25;1.75;;;13.30;99.90;;;;;;6075483;22;45151;-57
2023/10/14 07:53:29;;;;;;;11.05;1.95;;;13.70;99.90;;;;;;6059016;22;47053;-58
2023/10/14 07:55:57;;;;;;;11.88;1.65;;;13.60;99.90;;;;;;6043164;22;45040;-57
2023/10/14 07:58:57;;;;;;;6.30;1.92;;;13.50;99.90;;;;;;6030242;22;45245;-58
2023/10/14 08:01:47;;;;;;;15.88;1.85;;;13.50;99.90;;;;;;6047727;22;45120;-57
2023/10/14 08:04:27;;;;;;;7.95;2.17;;;13.40;99.90;;;;;;6042284;22;46475;-57
2023/10/14 08:06:54;;;;;;;12.07;2.33;;;13.40;99.90;;;;;;6035300;22;45266;-56
2023/10/14 08:09:24;;;;;;;15.40;1.95;;;13.50;99.90;;;;;;6022346;22;45265;-57
2023/10/14 08:12:20;;;;;;;13.70;1.80;;;13.40;99.90;;;;;;6037010;22;44870;-57
2023/10/14 08:14:52;;;;;;;14.80;2.00;;;13.60;99.90;;;;;;6023918;22;46210;-57
2023/10/14 08:17:57;;;;;;;13.65;2.10;;;13.30;99.90;;;;;;6018670;22;45237;-57
2023/10/14 08:20:46;;;;;;;23.40;2.22;;;13.30;99.90;;;;;;6005104;22;45279;-54
2023/10/14 08:23:13;;;;;;;10.45;2.30;;;13.50;99.90;;;;;;6024634;22;45328;-56
2023/10/14 08:25:43;;;;;;;15.43;2.00;;;13.50;99.90;;;;;;6057566;22;46156;-57
2023/10/14 08:28:11;;;;;;;15.13;2.17;;;13.20;99.90;;;;;;6034675;22;44957;-57
2023/10/14 08:30:55;;;;;;;7.13;1.75;;;13.10;99.90;;;;;;6062900;22;45298;-57
2023/10/14 08:33:38;;;;;;;11.52;1.88;;;13.30;99.90;;;;;;6042539;22;45095;-58
2023/10/14 08:36:31;;;;;;;18.23;2.58;;;13.60;99.90;;;;;;6060847;22;47295;-54
2023/10/14 08:38:58;;;;;;;5.90;1.00;;;13.50;99.90;;;;;;6010520;22;45105;-57
2023/10/14 08:41:28;;;;;;;8.15;1.48;;;14.70;99.90;;;;;;6038870;22;45311;-57
2023/10/14 08:44:36;;;;;;;10.32;2.05;;;15.60;99.90;;;;;;6049004;22;45110;-58
2023/10/14 08:47:17;;;;;;;8.77;1.33;;;15.20;99.90;;;;;;6055556;22;46453;-58
2023/10/14 08:49:57;;;;;;;10.27;1.77;;;15.00;99.90;;;;;;6080931;22;45196;-59
2023/10/14 08:53:03;;;;;;;8.00;1.73;;;15.80;99.90;;;;;;6068331;22;45313;-58
2023/10/14 08:55:53;;;;;;;7.47;1.50;;;16.50;99.90;;;;;;6079936;22;45375;-55
2023/10/14 08:58:36;;;;;;;13.80;1.90;;;17.10;99.90;;;;;;6027412;22;46344;-57
2023/10/14 09:01:19;;;;;;;11.60;2.58;;;17.10;99.90;;;;;;6050287;22;45112;-58
2023/10/14 09:03:54;;;;;;;13.70;2.35;;;17.20;99.90;;;;;;6050287;22;45044;-58
2023/10/14 09:06:30;;;;;;;12.50;2.28;;;17.30;99.90;;;;;;6070104;22;45039;-55
2023/10/14 09:09:27;;;;;;;13.52;1.88;;;16.00;99.90;;;;;;6046753;22;46149;-56
2023/10/14 09:11:54;;;;;;;16.13;2.25;;;15.00;99.90;;;;;;6038948;22;45181;-57
2023/10/14 09:14:43;;;;;;;13.75;2.35;;;14.50;99.90;;;;;;6043565;22;45367;-58
2023/10/14 09:17:37;;;;;;;17.15;2.80;;;14.30;99.90;;;;;;6050401;22;45209;-58
2023/10/14 09:20:45;;;;;;;11.02;1.83;;;14.30;99.90;;;;;;6023652;22;46002;-58
2023/10/14 09:23:44;;;;;;;12.90;1.90;;;14.30;99.90;;;;;;5981795;22;45247;-58
2023/10/14 09:28:53;;;;;;;16.15;2.78;;;14.10;99.90;;;;;;6023130;22;45416;-59
2023/10/14 09:31:39;;;;;;;15.98;2.38;;;14.10;99.90;;;;;;6062151;22;45649;-56
2023/10/14 09:34:45;;;;;;;9.27;2.03;;;14.50;99.90;;;;;;6046477;22;45274;-55
2023/10/14 09:37:22;;;;;;;10.82;1.92;;;14.40;99.90;;;;;;6034489;22;45081;-57
2023/10/14 09:40:20;;;;;;;8.73;1.77;;;14.30;99.90;;;;;;6058888;22;45455;-58
2023/10/14 09:43:08;;;;;;;15.43;2.28;;;14.50;99.90;;;;;;6037308;22;45738;-58
2023/10/14 09:45:48;;;;;;;14.13;2.15;;;14.30;99.90;;;;;;6036253;22;45324;-55
2023/10/14 09:48:45;;;;;;;17.88;2.17;;;14.30;99.90;;;;;;6053008;22;45101;-56
2023/10/14 09:54:31;;;;;;;16.55;1.92;;;14.20;99.90;;;;;;6015130;22;45214;-55
2023/10/14 09:57:25;;;;;;;8.50;2.00;;;14.40;99.90;;;;;;6063802;22;45098;-55
2023/10/14 10:00:19;;;;;;;16.58;2.15;;;14.20;99.90;;;;;;6036837;22;45261;-56
2023/10/14 10:03:09;;;;;;;13.63;1.95;;;14.70;99.90;;;;;;6046098;22;45065;-54
2023/10/14 10:05:58;;;;;;;11.68;1.73;;;14.60;99.90;;;;;;6039455;22;46315;-57
2023/10/14 10:08:56;;;;;;;9.35;2.00;;;14.60;99.90;;;;;;6064092;22;45209;-58
2023/10/14 10:11:26;;;;;;;6.75;1.20;;;14.30;99.90;;;;;;6047192;22;45186;-58
2023/10/14 10:14:18;;;;;;;10.23;1.85;;;14.40;99.90;;;;;;6082928;22;44853;-58
2023/10/14 10:16:52;;;;;;;9.88;1.63;;;14.50;99.90;;;;;;6045286;22;47659;-58
2023/10/14 10:19:21;;;;;;;11.00;2.03;;;14.70;99.90;;;;;;6065616;22;44853;-57
2023/10/14 10:26:03;;;;;;;11.23;1.88;;;14.20;99.90;;;;;;5924436;22;44981;-60
2023/10/14 10:29:21;;;;;;;8.95;1.77;;;14.30;99.90;;;;;;6047480;22;45587;-57
2023/10/14 10:32:31;;;;;;;12.70;2.03;;;14.20;99.90;;;;;;6054135;22;45157;-59
2023/10/14 10:35:29;;;;;;;8.93;1.70;;;14.80;99.90;;;;;;6051286;22;45345;-60
2023/10/14 10:38:10;;;;;;;10.30;2.25;;;14.40;99.90;;;;;;6060264;22;44997;-60
2023/10/14 10:41:18;;;;;;;8.68;1.88;;;14.40;99.90;;;;;;6065651;22;45961;-61
2023/10/14 10:43:48;;;;;;;8.23;1.80;;;14.60;99.90;;;;;;6044678;22;45288;-60
2023/10/14 10:46:45;;;;;;;6.68;1.70;;;14.60;99.90;;;;;;6029781;22;45201;-60
2023/10/14 10:49:50;;;;;;;9.85;1.90;;;15.00;99.90;;;;;;6043805;22;45260;-61
2023/10/14 10:52:36;;;;;;;18.20;2.10;;;14.70;99.90;;;;;;6061785;22;46276;-61
2023/10/14 10:55:20;;;;;;;9.35;2.05;;;14.80;99.90;;;;;;6032939;22;45284;-61
2023/10/14 10:58:01;;;;;;;11.25;3.00;;;15.20;99.90;;;;;;6041199;22;45054;-61
2023/10/14 11:00:42;;;;;;;11.80;1.70;;;15.20;99.90;;;;;;6036323;22;45073;-61
2023/10/14 11:03:34;;;;;;;11.75;1.95;;;15.10;99.90;;;;;;6058542;22;46362;-62
2023/10/14 11:06:31;;;;;;;7.60;1.55;;;15.10;99.90;;;;;;6079695;22;44892;-62
2023/10/14 11:09:17;;;;;;;10.63;2.15;;;14.90;98.80;;;;;;6038757;22;44942;-62
2023/10/14 11:11:48;;;;;;;9.85;1.73;;;15.10;99.90;;;;;;6044050;22;45482;-62
2023/10/14 11:14:44;;;;;;;9.95;1.45;;;14.90;99.40;;;;;;6045825;22;47157;-62
2023/10/14 11:17:26;;;;;;;12.35;1.95;;;14.80;97.50;;;;;;6030099;22;45258;-60
2023/10/14 11:19:58;;;;;;;6.55;1.83;;;14.70;96.90;;;;;;6014776;22;45020;-60
2023/10/14 11:22:46;;;;;;;9.23;1.83;;;14.90;98.50;;;;;;6030115;22;45347;-60
2023/10/14 11:25:14;;;;;;;9.23;1.60;;;15.10;96.30;;;;;;6021941;22;46021;-60
2023/10/14 11:27:57;;;;;;;7.15;1.40;;;15.00;96.10;;;;;;6058909;22;45054;-60
2023/10/14 11:30:47;;;;;;;7.57;1.77;;;14.80;96.50;;;;;;6081514;22;45102;-60
2023/10/14 11:37:15;;;;;;;7.78;1.25;;;14.80;94.20;;;;;;6038347;22;45240;-60
2023/10/14 11:40:12;;;;;;;14.13;1.92;;;14.80;95.00;;;;;;6029230;22;45077;-60
2023/10/14 11:42:55;;;;;;;11.00;1.70;;;15.10;96.60;;;;;;6071376;22;44876;-60
2023/10/14 11:45:40;;;;;;;8.85;1.65;;;15.10;95.00;;;;;;6048387;22;44847;-60
2023/10/14 11:48:38;;;;;;;9.60;2.00;;;15.10;97.80;;;;;;6066055;22;45262;-60
2023/10/14 11:51:11;;;;;;;9.48;1.25;;;15.40;98.10;;;;;;6043303;22;45131;-60
2023/10/14 11:53:50;;;;;;;8.90;1.80;;;15.40;94.40;;;;;;6055064;22;45414;-60
2023/10/14 11:56:49;;;;;;;11.88;1.60;;;15.30;92.20;;;;;;6055936;22;45228;-60
2023/10/14 11:59:38;;;;;;;12.35;1.70;;;15.10;94.00;;;;;;6061180;22;46393;-60
2023/10/14 12:02:24;;;;;;;10.45;1.60;;;15.00;92.90;;;;;;6022118;22;45415;-60
2023/10/14 12:05:21;;;;;;;9.40;1.48;;;14.90;90.60;;;;;;6041788;22;45289;-60
2023/10/14 12:08:13;;;;;;;13.18;1.92;;;14.80;90.60;;;;;;6046172;22;45373;-60
2023/10/14 12:11:09;;;;;;;7.55;1.08;;;14.60;90.40;;;;;;6030828;22;46608;-60
2023/10/14 12:14:07;;;;;;;8.30;1.40;;;14.50;92.20;;;;;;6076333;22;45195;-60
2023/10/14 12:17:04;;;;;;;9.48;1.67;;;14.70;93.70;;;;;;6007647;22;45509;-60
2023/10/14 12:19:43;;;;;;;10.52;1.98;;;14.80;93.00;;;;;;6034086;22;44846;-60
2023/10/14 12:22:40;;;;;;;7.63;1.42;;;14.80;93.80;;;;;;6046437;22;46206;-60
2023/10/14 12:25:09;;;;;;;11.70;2.05;;;14.90;95.70;;;;;;6047137;22;45085;-60
2023/10/14 12:27:39;;;;;;;11.18;1.75;;;15.00;96.20;;;;;;6042961;22;45148;-60
2023/10/14 12:33:02;;;;;;;8.02;1.52;;;15.00;97.20;;;;;;6049455;22;46179;-60
2023/10/14 12:36:22;;;;;;;6.30;1.48;;;15.00;93.90;;;;;;6074228;22;45280;-60
2023/10/14 12:38:49;;;;;;;12.25;1.42;;;15.20;94.40;;;;;;6028133;22;45281;-60
2023/10/14 12:41:21;;;;;;;13.23;1.95;;;15.40;94.10;;;;;;6055668;22;45022;-60
2023/10/14 12:44:27;;;;;;;11.38;1.60;;;15.50;95.60;;;;;;6024991;22;46726;-60
2023/10/14 12:47:15;;;;;;;9.88;2.03;;;15.40;90.10;;;;;;6048236;22;45155;-60
2023/10/14 12:49:58;;;;;;;6.85;2.13;;;15.40;91.40;;;;;;6045852;22;45499;-60
2023/10/14 12:52:25;;;;;;;9.77;1.52;;;15.40;87.10;;;;;;6042105;22;45267;-60
2023/10/14 12:55:24;;;;;;;10.10;1.30;;;15.50;85.80;;;;;;6126702;22;47269;-60
2023/10/14 12:58:17;;;;;;;12.65;1.70;;;15.40;92.00;;;;;;6042069;22;45114;-60
2023/10/14 13:01:05;;;;;;;9.38;1.67;;;15.40;99.60;;;;;;6056046;22;45181;-60
2023/10/14 13:03:35;;;;;;;13.65;2.15;;;15.50;93.20;;;;;;6034158;22;45239;-61
2023/10/14 13:06:44;;;;;;;9.40;1.52;;;15.30;95.70;;;;;;6038712;22;45799;-61
2023/10/14 13:09:52;;;;;;;10.52;1.52;;;15.30;91.10;;;;;;6042525;22;45615;-61
2023/10/14 13:12:22;;;;;;;8.70;1.90;;;15.20;94.60;;;;;;6027060;22;45137;-61
2023/10/14 13:14:50;;;;;;;11.45;1.70;;;15.70;95.30;;;;;;6037673;22;45175;-61
2023/10/14 13:19:59;;;;;;;8.45;1.60;;;15.30;81.20;;;;;;6045098;22;45193;-61
2023/10/14 13:22:50;;;;;;;8.95;1.55;;;15.20;92.80;;;;;;6068742;22;45352;-61
2023/10/14 13:25:42;;;;;;;10.70;1.77;;;15.30;88.10;;;;;;6033126;22;45330;-61
2023/10/14 13:28:21;;;;;;;11.63;1.55;;;15.10;88.60;;;;;;6062900;22;48575;-61
2023/10/14 13:30:49;;;;;;;7.50;1.48;;;15.20;87.70;;;;;;6078898;22;45117;-61
2023/10/14 13:37:00;;;;;;;6.07;1.20;;;15.20;91.50;;;;;;6002896;22;45066;-61
2023/10/14 13:39:46;;;;;;;9.70;1.63;;;15.10;88.50;;;;;;6050789;22;46940;-61
2023/10/14 13:42:25;;;;;;;7.15;1.48;;;15.50;94.70;;;;;;6073469;22;45227;-61
2023/10/14 13:48:16;;;;;;;7.70;1.50;;;15.50;92.00;;;;;;6005911;22;45134;-61
2023/10/14 13:51:21;;;;;;;6.45;1.23;;;15.40;92.50;;;;;;6059269;22;46654;-61
2023/10/14 13:53:48;;;;;;;9.93;1.80;;;15.70;94.80;;;;;;6044530;22;44813;-61
2023/10/14 13:56:37;;;;;;;6.78;1.75;;;15.40;93.50;;;;;;6044783;22;45297;-61
2023/10/14 13:59:09;;;;;;;9.32;1.77;;;15.20;91.70;;;;;;6044256;22;45484;-61
2023/10/14 14:01:36;;;;;;;8.15;1.30;;;15.10;91.80;;;;;;6044781;22;46168;-61
2023/10/14 14:04:07;;;;;;;9.88;1.25;;;15.00;92.00;;;;;;6025365;22;45079;-61
2023/10/14 14:06:35;;;;;;;10.52;1.95;;;14.90;94.00;;;;;;6031666;22;45172;-61
2023/10/14 14:09:27;;;;;;;11.25;1.83;;;15.00;93.80;;;;;;6085384;22;45073;-61
2023/10/14 14:12:06;;;;;;;6.75;1.50;;;15.40;95.60;;;;;;6018539;22;47260;-61
2023/10/14 14:14:36;;;;;;;8.02;1.50;;;15.50;92.40;;;;;;6090732;22;44831;-61
2023/10/14 14:17:04;;;;;;;7.28;1.42;;;15.50;93.10;;;;;;6050357;22;45191;-61
2023/10/14 14:19:31;;;;;;;10.15;1.40;;;15.30;92.00;;;;;;6055588;22;45391;-61
2023/10/14 14:22:22;;;;;;;9.00;1.48;;;15.20;95.60;;;;;;6028749;22;47285;-61
2023/10/14 14:24:49;;;;;;;10.73;1.45;;;15.20;94.20;;;;;;6011395;22;45207;-61
2023/10/14 14:27:16;;;;;;;5.55;1.45;;;15.20;94.90;;;;;;6041817;22;45185;-61
2023/10/14 14:30:06;;;;;;;9.55;1.35;;;15.40;93.50;;;;;;6040782;22;45319;-61
2023/10/14 14:32:55;;;;;;;10.38;1.50;;;15.30;92.50;;;;;;6041534;22;46260;-61
2023/10/14 14:38:46;;;;;;;7.45;1.60;;;15.30;85.00;;;;;;6006245;22;45095;-61
2023/10/14 14:42:14;;;;;;;8.25;1.48;;;15.30;93.30;;;;;;6050124;22;45382;-61
2023/10/14 14:44:44;;;;;;;9.52;1.65;;;15.20;96.10;;;;;;6046441;22;45932;-61
2023/10/14 14:47:40;;;;;;;4.53;1.23;;;15.30;93.80;;;;;;6059560;22;45047;-61
2023/10/14 14:50:24;;;;;;;9.20;1.58;;;15.20;92.40;;;;;;6042426;22;44893;-61
2023/10/14 14:53:00;;;;;;;6.43;1.20;;;15.10;93.10;;;;;;6044543;22;45033;-61
2023/10/14 14:55:36;;;;;;;6.00;1.40;;;14.80;91.10;;;;;;6038430;22;45261;-61
2023/10/14 14:58:06;;;;;;;9.75;1.48;;;14.70;91.50;;;;;;6057337;22;45173;-61
2023/10/14 15:00:34;;;;;;;11.55;1.65;;;14.70;91.70;;;;;;6060354;22;45189;-61
2023/10/14 15:03:15;;;;;;;4.68;1.08;;;14.70;93.80;;;;;;6030729;22;45110;-61
2023/10/14 15:06:08;;;;;;;4.05;1.08;;;15.00;92.40;;;;;;6028300;22;46313;-61
2023/10/14 15:08:35;;;;;;;6.85;1.40;;;14.90;90.60;;;;;;6029020;22;45408;-61
2023/10/14 15:11:37;;;;;;;7.13;0.93;;;15.20;94.20;;;;;;6044730;22;45338;-61
2023/10/14 15:14:34;;;;;;;5.90;1.17;;;14.80;92.30;;;;;;6078234;22;45085;-61
2023/10/14 15:17:05;;;;;;;3.65;0.98;;;14.80;86.70;;;;;;6022629;22;47032;-61
2023/10/14 15:19:50;;;;;;;4.25;1.10;;;15.00;90.00;;;;;;6069997;22;45198;-61
2023/10/14 15:24:57;;;;;;;2.85;1.00;;;14.70;91.30;;;;;;5995196;22;45374;-61
2023/10/14 15:27:26;;;;;;;7.28;1.00;;;14.90;94.70;;;;;;6062099;22;46269;-61
2023/10/14 15:30:20;;;;;;;4.18;1.05;;;15.10;91.00;;;;;;6070599;22;45235;-61
2023/10/14 15:33:09;;;;;;;9.65;1.20;;;15.00;80.60;;;;;;6041888;22;45022;-61
2023/10/14 15:35:51;;;;;;;4.50;1.20;;;15.20;92.00;;;;;;6021357;22;45357;-61
2023/10/14 15:38:43;;;;;;;7.30;1.15;;;15.30;91.10;;;;;;6040828;22;46270;-60
2023/10/14 15:41:47;;;;;;;9.90;1.58;;;15.20;88.30;;;;;;6045062;22;45272;-61
2023/10/14 15:44:19;;;;;;;5.90;0.93;;;15.10;93.50;;;;;;6058296;22;45477;-60
2023/10/14 15:47:10;;;;;;;6.68;0.93;;;15.20;91.50;;;;;;6036629;22;45286;-60
2023/10/14 15:49:50;;;;;;;6.88;1.05;;;15.10;94.30;;;;;;6080924;22;47522;-61
2023/10/14 15:52:30;;;;;;;6.75;1.17;;;15.30;96.10;;;;;;6037856;22;45127;-60
2023/10/14 15:55:16;;;;;;;5.43;1.27;;;15.50;93.90;;;;;;6047234;22;45181;-61
2023/10/14 15:57:45;;;;;;;4.78;1.20;;;15.50;94.00;;;;;;6054837;22;45580;-60
2023/10/14 16:00:47;;;;;;;6.93;1.13;;;15.60;94.20;;;;;;6028867;22;46275;-61
2023/10/14 16:03:27;;;;;;;7.50;1.30;;;15.70;93.90;;;;;;6067663;22;45212;-60
2023/10/14 16:06:32;;;;;;;8.32;1.50;;;15.20;91.20;;;;;;6048644;22;45167;-60
2023/10/14 16:09:28;;;;;;;7.93;1.35;;;14.50;92.60;;;;;;6070599;22;45110;-60
2023/10/14 16:12:12;;;;;;;12.63;1.20;;;14.40;98.00;;;;;;6050889;22;47196;-60
2023/10/14 16:15:15;;;;;;;7.75;1.73;;;15.00;98.80;;;;;;6058766;22;45131;-60
2023/10/14 16:17:56;;;;;;;8.70;1.45;;;14.90;98.00;;;;;;6028991;22;45346;-60
2023/10/14 16:20:31;;;;;;;10.45;1.42;;;15.60;99.60;;;;;;6040851;22;45089;-60